Time,TemperatureF,DewpointF,PressureIn,WindDirection,WindDirectionDegrees,WindSpeedMPH,WindSpeedGustMPH,Humidity,HourlyPrecipIn,Conditions,Clouds,dailyrainin,SoftwareType,DateUTC
2013-07-15 00:01:00,70.9,70.9,29.95,SSE,165,0.0,5.0,100,0.00,,,0.00,VWS V14.01,2013-07-15 05:01:00,
2013-07-15 00:06:00,70.8,70.8,29.95,SSE,167,0.0,3.0,100,0.00,,,0.00,VWS V14.01,2013-07-15 05:06:00,
2013-07-15 00:11:00,70.8,70.8,29.95,SSE,152,0.0,3.0,100,0.00,,,0.00,VWS V14.01,2013-07-15 05:11:00,
2013-07-15 00:16:00,70.6,70.6,29.95,SSE,152,0.0,3.0,100,0.00,,,0.00,VWS V14.01,2013-07-15 05:16:00,
2013-07-15 00:21:00,70.4,70.4,29.95,SSE,152,0.0,0.0,100,0.00,,,0.00,VWS V14.01,2013-07-15 05:21:00,
2013-07-15 00:26:00,70.3,70.3,29.95,SSE,152,0.0,0.0,100,0.00,,,0.00,VWS V14.01,2013-07-15 05:26:00,
2013-07-15 00:31:00,70.1,70.1,29.95,SSE,152,0.0,0.0,100,0.00,,,0.00,VWS V14.01,2013-07-15 05:31:00,
2013-07-15 00:36:00,69.9,69.9,29.96,SSE,152,0.0,0.0,100,0.00,,,0.00,VWS V14.01,2013-07-15 05:36:00,
2013-07-15 00:41:00,69.8,69.8,29.96,SSE,152,0.0,0.0,100,0.00,,,0.00,VWS V14.01,2013-07-15 05:41:00,
2013-07-15 00:46:00,69.6,69.6,29.96,SSE,152,0.0,0.0,100,0.00,,,0.00,VWS V14.01,2013-07-15 05:46:00,
2013-07-15 00:51:00,69.4,69.4,29.96,SSE,152,0.0,0.0,100,0.00,,,0.00,VWS V14.01,2013-07-15 05:51:00,
2013-07-15 00:56:00,69.3,69.3,29.96,SSE,152,0.0,0.0,100,0.00,,,0.00,VWS V14.01,2013-07-15 05:56:00,
2013-07-15 01:01:00,69.1,69.1,29.96,SSE,152,0.0,0.0,100,0.00,,,0.00,VWS V14.01,2013-07-15 06:01:00,
2013-07-15 01:06:00,68.9,68.9,29.96,SSE,152,0.0,0.0,100,0.00,,,0.00,VWS V14.01,2013-07-15 06:06:00,
2013-07-15 01:11:00,68.8,68.8,29.96,SSE,152,0.0,0.0,100,0.00,,,0.00,VWS V14.01,2013-07-15 06:11:00,
2013-07-15 01:16:00,68.8,68.8,29.96,SSE,152,0.0,0.0,100,0.00,,,0.00,VWS V14.01,2013-07-15 06:16:00,
2013-07-15 01:21:00,68.6,68.6,29.96,SSE,152,0.0,0.0,100,0.00,,,0.00,VWS V14.01,2013-07-15 06:21:00,
2013-07-15 01:26:00,68.6,68.6,29.96,SSE,152,0.0,0.0,100,0.00,,,0.00,VWS V14.01,2013-07-15 06:26:00,
2013-07-15 01:31:00,68.4,68.4,29.96,SSE,152,0.0,0.0,100,0.00,,,0.00,VWS V14.01,2013-07-15 06:31:00,
2013-07-15 01:36:00,68.4,68.4,29.97,SSE,152,0.0,0.0,100,0.00,,,0.00,VWS V14.01,2013-07-15 06:36:00,
2013-07-15 01:41:00,68.3,68.3,29.97,SSE,152,0.0,0.0,100,0.00,,,0.00,VWS V14.01,2013-07-15 06:41:00,
2013-07-15 01:46:00,68.1,68.1,29.97,SSE,152,0.0,0.0,100,0.00,,,0.00,VWS V14.01,2013-07-15 06:46:00,
2013-07-15 01:51:00,68.1,68.1,29.97,SSE,152,0.0,0.0,100,0.00,,,0.00,VWS V14.01,2013-07-15 06:51:00,
2013-07-15 01:56:00,67.9,67.9,29.97,SSE,152,0.0,0.0,100,0.00,,,0.00,VWS V14.01,2013-07-15 06:56:00,
2013-07-15 02:01:00,67.9,67.9,29.97,SSE,152,0.0,0.0,100,0.00,,,0.00,VWS V14.01,2013-07-15 07:01:00,
2013-07-15 02:06:00,67.8,67.8,29.98,SSE,152,0.0,0.0,100,0.00,,,0.00,VWS V14.01,2013-07-15 07:06:00,
2013-07-15 02:11:00,67.6,67.6,29.98,SSE,152,0.0,0.0,100,0.00,,,0.00,VWS V14.01,2013-07-15 07:11:00,
2013-07-15 02:16:00,67.6,67.6,29.98,SSE,152,0.0,0.0,100,0.00,,,0.00,VWS V14.01,2013-07-15 07:16:00,
2013-07-15 02:21:00,67.6,67.6,29.97,SSE,152,0.0,0.0,100,0.00,,,0.00,VWS V14.01,2013-07-15 07:21:00,
2013-07-15 02:26:00,67.4,67.4,29.97,SSE,152,0.0,0.0,100,0.00,,,0.00,VWS V14.01,2013-07-15 07:26:00,
2013-07-15 02:31:00,67.4,67.4,29.97,SSE,152,0.0,0.0,100,0.00,,,0.00,VWS V14.01,2013-07-15 07:31:00,
2013-07-15 02:36:00,67.3,67.3,29.97,SSE,152,0.0,0.0,100,0.00,,,0.00,VWS V14.01,2013-07-15 07:36:00,
2013-07-15 02:41:00,67.3,67.3,29.97,SSE,152,0.0,0.0,100,0.00,,,0.00,VWS V14.01,2013-07-15 07:41:00,
2013-07-15 02:46:00,67.3,67.3,29.97,SSE,152,0.0,0.0,100,0.00,,,0.00,VWS V14.01,2013-07-15 07:46:00,
2013-07-15 02:51:00,67.1,67.1,29.97,SSE,152,0.0,0.0,100,0.00,,,0.00,VWS V14.01,2013-07-15 07:51:00,
2013-07-15 02:56:00,67.1,67.1,29.97,SSE,152,0.0,0.0,100,0.00,,,0.00,VWS V14.01,2013-07-15 07:56:00,
2013-07-15 03:01:00,67.1,67.1,29.97,SSE,152,0.0,0.0,100,0.00,,,0.00,VWS V14.01,2013-07-15 08:01:00,
2013-07-15 03:06:00,67.1,67.1,29.97,SSE,152,0.0,2.0,100,0.00,,,0.00,VWS V14.01,2013-07-15 08:06:00,
2013-07-15 03:11:00,67.1,67.1,29.97,SSE,152,0.0,2.0,100,0.00,,,0.00,VWS V14.01,2013-07-15 08:11:00,
2013-07-15 03:16:00,67.1,67.1,29.97,SSE,152,0.0,2.0,100,0.00,,,0.00,VWS V14.01,2013-07-15 08:16:00,
2013-07-15 03:21:00,67.1,67.1,29.97,SSE,152,0.0,0.0,100,0.00,,,0.00,VWS V14.01,2013-07-15 08:21:00,
2013-07-15 03:26:00,67.1,67.1,29.97,SSE,152,0.0,0.0,100,0.00,,,0.00,VWS V14.01,2013-07-15 08:26:00,
2013-07-15 03:31:00,67.1,67.1,29.97,SSE,152,0.0,0.0,100,0.00,,,0.00,VWS V14.01,2013-07-15 08:31:00,
2013-07-15 03:36:00,67.3,67.3,29.97,SSE,152,0.0,0.0,100,0.00,,,0.00,VWS V14.01,2013-07-15 08:36:00,
2013-07-15 03:41:00,67.3,67.3,29.97,SSE,152,0.0,0.0,100,0.00,,,0.00,VWS V14.01,2013-07-15 08:41:00,
2013-07-15 03:46:00,67.4,67.4,29.97,SSE,152,0.0,0.0,100,0.00,,,0.00,VWS V14.01,2013-07-15 08:46:00,
2013-07-15 03:51:00,67.4,67.4,29.96,SSE,152,0.0,0.0,100,0.00,,,0.00,VWS V14.01,2013-07-15 08:51:00,
2013-07-15 03:56:00,67.4,67.4,29.96,SSE,152,0.0,0.0,100,0.00,,,0.00,VWS V14.01,2013-07-15 08:56:00,
2013-07-15 04:01:00,67.3,67.3,29.96,SSE,152,0.0,0.0,100,0.00,,,0.00,VWS V14.01,2013-07-15 09:01:00,
2013-07-15 04:06:00,67.3,67.3,29.96,SSE,152,0.0,0.0,100,0.00,,,0.00,VWS V14.01,2013-07-15 09:06:00,
2013-07-15 04:11:00,67.1,67.1,29.96,SSE,152,0.0,0.0,100,0.00,,,0.00,VWS V14.01,2013-07-15 09:11:00,
2013-07-15 04:16:00,67.1,67.1,29.96,SSE,152,0.0,0.0,100,0.00,,,0.00,VWS V14.01,2013-07-15 09:16:00,
2013-07-15 04:21:00,67.1,67.1,29.96,SSE,152,0.0,0.0,100,0.00,,,0.00,VWS V14.01,2013-07-15 09:21:00,
2013-07-15 04:26:00,66.9,66.9,29.96,SSE,152,0.0,0.0,100,0.00,,,0.00,VWS V14.01,2013-07-15 09:26:00,
2013-07-15 04:31:00,66.8,66.8,29.96,SSE,152,0.0,0.0,100,0.00,,,0.00,VWS V14.01,2013-07-15 09:31:00,
2013-07-15 04:36:00,66.6,66.6,29.97,SSE,152,0.0,0.0,100,0.00,,,0.00,VWS V14.01,2013-07-15 09:36:00,
2013-07-15 04:41:00,66.3,66.3,29.97,SSE,152,0.0,0.0,100,0.00,,,0.00,VWS V14.01,2013-07-15 09:41:00,
2013-07-15 04:46:00,66.1,66.1,29.97,SSE,152,0.0,0.0,100,0.00,,,0.00,VWS V14.01,2013-07-15 09:46:00,
2013-07-15 04:51:00,66.0,66.0,29.97,SSE,152,0.0,0.0,100,0.00,,,0.00,VWS V14.01,2013-07-15 09:51:00,
2013-07-15 04:56:00,65.8,65.8,29.97,SSE,152,0.0,0.0,100,0.00,,,0.00,VWS V14.01,2013-07-15 09:56:00,
2013-07-15 05:01:00,65.6,65.6,29.97,SSE,152,0.0,0.0,100,0.00,,,0.00,VWS V14.01,2013-07-15 10:01:00,
2013-07-15 05:06:00,65.6,65.6,29.97,SSE,152,0.0,0.0,100,0.00,,,0.00,VWS V14.01,2013-07-15 10:06:00,
2013-07-15 05:11:00,65.5,65.5,29.97,SSE,152,0.0,0.0,100,0.00,,,0.00,VWS V14.01,2013-07-15 10:11:00,
2013-07-15 05:16:00,65.3,65.3,29.97,SSE,152,0.0,0.0,100,0.00,,,0.00,VWS V14.01,2013-07-15 10:16:00,
2013-07-15 05:21:00,65.3,65.3,29.98,SSE,152,0.0,0.0,100,0.00,,,0.00,VWS V14.01,2013-07-15 10:21:00,
2013-07-15 05:26:00,65.2,65.2,29.98,SSE,152,0.0,0.0,100,0.00,,,0.00,VWS V14.01,2013-07-15 10:26:00,
2013-07-15 05:31:00,65.0,65.0,29.98,SSE,152,0.0,0.0,100,0.00,,,0.00,VWS V14.01,2013-07-15 10:31:00,
2013-07-15 05:36:00,64.8,64.8,29.98,SSE,152,0.0,0.0,100,0.00,,,0.00,VWS V14.01,2013-07-15 10:36:00,
2013-07-15 05:41:00,64.7,64.7,29.98,SSE,152,0.0,0.0,100,0.00,,,0.00,VWS V14.01,2013-07-15 10:41:00,
2013-07-15 05:46:00,64.3,64.3,29.98,SSE,152,0.0,0.0,100,0.00,,,0.00,VWS V14.01,2013-07-15 10:46:00,
2013-07-15 05:51:00,64.3,64.3,29.99,SSE,152,0.0,0.0,100,0.00,,,0.00,VWS V14.01,2013-07-15 10:51:00,
2013-07-15 05:56:00,64.2,64.2,29.99,SSE,152,0.0,0.0,100,0.00,,,0.00,VWS V14.01,2013-07-15 10:56:00,
2013-07-15 06:01:00,64.0,64.0,29.99,SSE,152,0.0,0.0,100,0.00,,,0.00,VWS V14.01,2013-07-15 11:01:00,
2013-07-15 06:06:00,63.9,63.9,29.99,SSE,152,0.0,0.0,100,0.00,,,0.00,VWS V14.01,2013-07-15 11:06:00,
2013-07-15 06:11:00,63.7,63.7,29.99,SSE,152,0.0,0.0,100,0.00,,,0.00,VWS V14.01,2013-07-15 11:11:00,
2013-07-15 06:16:00,63.5,63.5,29.99,SSE,152,0.0,0.0,100,0.00,,,0.00,VWS V14.01,2013-07-15 11:16:00,
2013-07-15 06:21:00,63.5,63.5,29.99,SSE,152,0.0,0.0,100,0.00,,,0.00,VWS V14.01,2013-07-15 11:21:00,
2013-07-15 06:26:00,63.4,63.4,29.99,SSE,152,0.0,0.0,100,0.00,,,0.00,VWS V14.01,2013-07-15 11:26:00,
2013-07-15 06:31:00,63.4,63.4,29.99,SSE,152,0.0,0.0,100,0.00,,,0.00,VWS V14.01,2013-07-15 11:31:00,
2013-07-15 06:36:00,63.2,63.2,30.00,SSE,152,0.0,0.0,100,0.00,,,0.00,VWS V14.01,2013-07-15 11:36:00,
2013-07-15 06:41:00,63.2,63.2,30.00,SSE,152,0.0,0.0,100,0.00,,,0.00,VWS V14.01,2013-07-15 11:41:00,
2013-07-15 06:46:00,63.2,63.2,30.00,SSE,152,0.0,0.0,100,0.00,,,0.00,VWS V14.01,2013-07-15 11:46:00,
2013-07-15 06:51:00,63.4,63.4,30.00,SSE,152,0.0,0.0,100,0.00,,,0.00,VWS V14.01,2013-07-15 11:51:00,
2013-07-15 06:56:00,63.4,63.4,30.00,SSE,152,0.0,0.0,100,0.00,,,0.00,VWS V14.01,2013-07-15 11:56:00,
2013-07-15 07:01:00,63.2,63.2,30.00,SSE,152,0.0,0.0,100,0.00,,,0.00,VWS V14.01,2013-07-15 12:01:00,
2013-07-15 07:06:00,63.1,63.1,30.00,SSE,152,0.0,0.0,100,0.00,,,0.00,VWS V14.01,2013-07-15 12:06:00,
2013-07-15 07:11:00,63.1,63.1,30.00,SSE,152,0.0,0.0,100,0.00,,,0.00,VWS V14.01,2013-07-15 12:11:00,
2013-07-15 07:16:00,63.2,63.2,30.00,SSE,152,0.0,0.0,100,0.00,,,0.00,VWS V14.01,2013-07-15 12:16:00,
2013-07-15 07:21:00,63.4,63.4,30.00,SSE,152,0.0,0.0,100,0.00,,,0.00,VWS V14.01,2013-07-15 12:21:00,
2013-07-15 07:26:00,63.7,63.7,30.00,SSE,152,0.0,0.0,100,0.00,,,0.00,VWS V14.01,2013-07-15 12:26:00,
2013-07-15 07:31:00,64.0,64.0,30.00,SSE,152,0.0,1.0,100,0.00,,,0.00,VWS V14.01,2013-07-15 12:31:00,
2013-07-15 07:36:00,64.2,64.2,30.00,SSE,152,0.0,2.0,100,0.00,,,0.00,VWS V14.01,2013-07-15 12:36:00,
2013-07-15 07:41:00,64.2,64.2,30.00,SSE,152,0.0,2.0,100,0.00,,,0.00,VWS V14.01,2013-07-15 12:41:00,
2013-07-15 07:46:00,64.3,64.3,30.00,SSE,152,1.0,2.0,100,0.00,,,0.00,VWS V14.01,2013-07-15 12:46:00,
2013-07-15 07:51:00,64.3,64.3,30.00,SSE,152,0.0,2.0,100,0.00,,,0.00,VWS V14.01,2013-07-15 12:51:00,
2013-07-15 07:56:00,64.5,64.5,30.00,SSE,152,0.0,2.0,100,0.00,,,0.00,VWS V14.01,2013-07-15 12:56:00,
2013-07-15 08:01:00,64.7,64.7,30.00,SSE,161,0.0,5.0,100,0.00,,,0.00,VWS V14.01,2013-07-15 13:01:00,
2013-07-15 08:06:00,64.8,64.8,29.99,SSE,161,0.0,5.0,100,0.00,,,0.00,VWS V14.01,2013-07-15 13:06:00,
2013-07-15 08:11:00,65.2,65.2,29.99,SSE,161,0.0,5.0,100,0.00,,,0.00,VWS V14.01,2013-07-15 13:11:00,
2013-07-15 08:16:00,65.3,65.3,29.99,SSE,161,0.0,5.0,100,0.00,,,0.00,VWS V14.01,2013-07-15 13:16:00,
2013-07-15 08:21:00,65.5,65.5,30.00,SSE,161,2.0,3.0,100,0.00,,,0.00,VWS V14.01,2013-07-15 13:21:00,
2013-07-15 08:26:00,65.8,65.8,30.00,SSE,161,2.0,3.0,100,0.00,,,0.00,VWS V14.01,2013-07-15 13:26:00,
2013-07-15 08:31:00,66.0,66.0,30.00,SSE,161,1.0,5.0,100,0.00,,,0.00,VWS V14.01,2013-07-15 13:31:00,
2013-07-15 08:36:00,66.3,66.3,30.00,SSE,161,2.0,4.0,100,0.00,,,0.00,VWS V14.01,2013-07-15 13:36:00,
2013-07-15 08:41:00,66.6,66.6,30.00,SSE,161,1.0,5.0,100,0.00,,,0.00,VWS V14.01,2013-07-15 13:41:00,
2013-07-15 08:46:00,66.8,66.8,30.00,SSE,161,0.0,5.0,100,0.00,,,0.00,VWS V14.01,2013-07-15 13:46:00,
2013-07-15 08:51:00,67.1,67.1,30.01,SSE,161,0.0,5.0,100,0.00,,,0.00,VWS V14.01,2013-07-15 13:51:00,
2013-07-15 08:56:00,67.4,67.4,30.01,SSE,161,1.0,5.0,100,0.00,,,0.00,VWS V14.01,2013-07-15 13:56:00,
2013-07-15 09:01:00,67.9,67.9,30.01,SSE,161,2.0,5.0,100,0.00,,,0.00,VWS V14.01,2013-07-15 14:01:00,
2013-07-15 09:06:00,68.4,67.2,30.01,SSE,162,0.0,6.0,96,0.00,,,0.00,VWS V14.01,2013-07-15 14:06:00,
2013-07-15 09:11:00,68.9,67.4,30.01,SSE,162,1.0,6.0,95,0.00,,,0.00,VWS V14.01,2013-07-15 14:11:00,
2013-07-15 09:16:00,69.4,67.0,30.01,SSE,162,1.0,6.0,92,0.00,,,0.00,VWS V14.01,2013-07-15 14:16:00,
2013-07-15 09:21:00,70.3,67.6,30.01,South,186,2.0,5.0,91,0.00,,,0.00,VWS V14.01,2013-07-15 14:21:00,
2013-07-15 09:26:00,70.9,66.5,30.01,South,171,2.0,7.0,86,0.00,,,0.00,VWS V14.01,2013-07-15 14:26:00,
2013-07-15 09:31:00,71.5,66.4,30.01,South,172,3.0,7.0,84,0.00,,,0.00,VWS V14.01,2013-07-15 14:31:00,
2013-07-15 09:36:00,71.8,66.7,30.01,SSW,198,6.0,7.0,84,0.00,,,0.00,VWS V14.01,2013-07-15 14:36:00,
2013-07-15 09:41:00,72.3,66.2,30.01,South,188,1.0,9.0,81,0.00,,,0.00,VWS V14.01,2013-07-15 14:41:00,
2013-07-15 09:46:00,72.5,66.0,30.01,South,191,7.0,10.0,80,0.00,,,0.00,VWS V14.01,2013-07-15 14:46:00,
2013-07-15 09:51:00,72.8,66.3,30.00,South,189,2.0,7.0,80,0.00,,,0.00,VWS V14.01,2013-07-15 14:51:00,
2013-07-15 09:57:00,73.2,64.8,30.00,SSW,202,4.0,7.0,75,0.00,,,0.00,VWS V14.01,2013-07-15 14:57:00,
2013-07-15 10:02:00,73.3,65.7,30.00,SSE,168,2.0,7.0,77,0.00,,,0.00,VWS V14.01,2013-07-15 15:02:00,
2013-07-15 10:07:00,73.5,64.7,30.00,SSW,198,5.0,8.0,74,0.00,,,0.00,VWS V14.01,2013-07-15 15:07:00,
2013-07-15 10:12:00,73.9,64.7,30.00,South,188,6.0,11.0,73,0.00,,,0.00,VWS V14.01,2013-07-15 15:12:00,
2013-07-15 10:17:00,74.0,64.0,30.00,SSW,200,5.0,11.0,71,0.00,,,0.00,VWS V14.01,2013-07-15 15:17:00,
2013-07-15 10:22:00,74.6,64.2,30.00,South,189,2.0,7.0,70,0.00,,,0.00,VWS V14.01,2013-07-15 15:22:00,
2013-07-15 10:27:00,74.7,63.9,30.00,South,186,5.0,7.0,69,0.00,,,0.00,VWS V14.01,2013-07-15 15:27:00,
2013-07-15 10:33:00,75.1,63.0,30.00,South,182,3.0,8.0,66,0.00,,,0.00,VWS V14.01,2013-07-15 15:33:00,
2013-07-15 10:38:00,75.3,64.4,30.00,SSW,203,7.0,10.0,69,0.00,,,0.00,VWS V14.01,2013-07-15 15:38:00,
2013-07-15 10:43:00,75.3,64.0,30.00,SSW,198,6.0,10.0,68,0.00,,,0.00,VWS V14.01,2013-07-15 15:43:00,
2013-07-15 10:48:00,75.4,63.7,30.00,SSW,195,6.0,6.0,67,0.00,,,0.00,VWS V14.01,2013-07-15 15:48:00,
2013-07-15 10:53:00,75.6,62.6,30.00,South,191,2.0,8.0,64,0.00,,,0.00,VWS V14.01,2013-07-15 15:53:00,
2013-07-15 10:58:00,76.1,64.8,30.00,SSW,205,7.0,10.0,68,0.00,,,0.00,VWS V14.01,2013-07-15 15:58:00,
2013-07-15 11:03:00,76.3,62.8,30.00,SSW,193,2.0,7.0,63,0.00,,,0.00,VWS V14.01,2013-07-15 16:03:00,
2013-07-15 11:09:00,76.7,62.2,30.00,South,176,0.0,7.0,61,0.00,,,0.00,VWS V14.01,2013-07-15 16:09:00,
2013-07-15 11:14:00,77.0,61.6,30.00,SSW,192,4.0,10.0,59,0.00,,,0.00,VWS V14.01,2013-07-15 16:14:00,
2013-07-15 11:19:00,77.0,61.1,30.00,South,185,3.0,7.0,58,0.00,,,0.00,VWS V14.01,2013-07-15 16:19:00,
2013-07-15 11:24:00,77.2,60.8,30.00,SSW,195,7.0,10.0,57,0.00,,,0.00,VWS V14.01,2013-07-15 16:24:00,
2013-07-15 11:29:00,77.2,60.3,30.00,South,189,0.0,12.0,56,0.00,,,0.00,VWS V14.01,2013-07-15 16:29:00,
2013-07-15 11:34:00,77.2,59.8,30.00,SSW,196,6.0,7.0,55,0.00,,,0.00,VWS V14.01,2013-07-15 16:34:00,
2013-07-15 11:39:00,77.4,57.3,30.00,South,189,4.0,10.0,50,0.00,,,0.00,VWS V14.01,2013-07-15 16:39:00,
2013-07-15 11:44:00,77.4,56.2,30.00,SSW,196,7.0,10.0,48,0.00,,,0.00,VWS V14.01,2013-07-15 16:44:00,
2013-07-15 11:49:00,77.7,57.6,30.00,South,191,3.0,7.0,50,0.00,,,0.00,VWS V14.01,2013-07-15 16:49:00,
2013-07-15 11:54:00,77.6,57.5,30.00,SSW,195,4.0,12.0,50,0.00,,,0.00,VWS V14.01,2013-07-15 16:54:00,
2013-07-15 11:59:00,77.6,57.0,30.00,SSW,192,4.0,12.0,49,0.00,,,0.00,VWS V14.01,2013-07-15 16:59:00,
2013-07-15 12:04:00,77.9,57.2,30.00,SSW,196,2.0,7.0,49,0.00,,,0.00,VWS V14.01,2013-07-15 17:04:00,
2013-07-15 12:09:00,77.9,54.3,30.00,South,191,4.0,10.0,44,0.00,,,0.00,VWS V14.01,2013-07-15 17:09:00,
2013-07-15 12:15:00,78.6,57.9,30.00,South,175,7.0,10.0,49,0.00,,,0.00,VWS V14.01,2013-07-15 17:15:00,
2013-07-15 12:20:00,79.2,56.0,30.00,SSE,164,0.0,7.0,45,0.00,,,0.00,VWS V14.01,2013-07-15 17:20:00,
2013-07-15 12:25:00,79.8,57.2,30.00,SSE,164,4.0,7.0,46,0.00,,,0.00,VWS V14.01,2013-07-15 17:25:00,
2013-07-15 12:30:00,79.9,56.7,30.00,SSE,167,0.0,7.0,45,0.00,,,0.00,VWS V14.01,2013-07-15 17:30:00,
2013-07-15 12:35:00,80.1,56.2,30.00,SSW,192,1.0,8.0,44,0.00,,,0.00,VWS V14.01,2013-07-15 17:35:00,
2013-07-15 12:40:00,80.3,57.0,30.00,SSW,192,0.0,8.0,45,0.00,,,0.00,VWS V14.01,2013-07-15 17:40:00,
2013-07-15 12:45:00,80.3,58.2,30.00,South,179,5.0,8.0,47,0.00,,,0.00,VWS V14.01,2013-07-15 17:45:00,
2013-07-15 12:50:00,80.9,56.3,29.99,SSW,196,5.0,8.0,43,0.00,,,0.00,VWS V14.01,2013-07-15 17:50:00,
2013-07-15 12:55:00,81.1,57.2,29.99,SSW,193,5.0,8.0,44,0.00,,,0.00,VWS V14.01,2013-07-15 17:55:00,
2013-07-15 13:00:00,80.7,57.4,29.99,East,99,0.0,10.0,45,0.00,,,0.00,VWS V14.01,2013-07-15 18:00:00,
2013-07-15 13:05:00,80.5,54.7,29.98,SSE,167,0.0,5.0,41,0.00,,,0.00,VWS V14.01,2013-07-15 18:05:00,
2013-07-15 13:10:00,80.3,54.5,29.98,SSE,167,0.0,5.0,41,0.00,,,0.00,VWS V14.01,2013-07-15 18:10:00,
2013-07-15 13:15:00,80.1,57.5,29.98,SSW,205,3.0,7.0,46,0.00,,,0.00,VWS V14.01,2013-07-15 18:15:00,
2013-07-15 13:20:00,79.9,56.7,29.99,ENE,76,5.0,5.0,45,0.00,,,0.00,VWS V14.01,2013-07-15 18:20:00,
2013-07-15 13:25:00,80.1,52.2,29.99,SSW,196,1.0,6.0,38,0.00,,,0.00,VWS V14.01,2013-07-15 18:25:00,
2013-07-15 13:31:00,80.3,53.1,29.99,SSW,196,0.0,6.0,39,0.00,,,0.00,VWS V14.01,2013-07-15 18:31:00,
2013-07-15 13:36:00,81.4,54.8,29.99,SSW,199,2.0,8.0,40,0.00,,,0.00,VWS V14.01,2013-07-15 18:36:00,
2013-07-15 13:41:00,82.0,58.0,29.99,South,188,5.0,8.0,44,0.00,,,0.00,VWS V14.01,2013-07-15 18:41:00,
2013-07-15 13:46:00,82.6,52.2,29.99,SSE,164,2.0,8.0,35,0.00,,,0.00,VWS V14.01,2013-07-15 18:46:00,
2013-07-15 13:51:00,82.8,54.6,29.98,SSE,152,6.0,6.0,38,0.00,,,0.00,VWS V14.01,2013-07-15 18:51:00,
2013-07-15 13:56:00,82.6,55.2,29.98,SSE,165,0.0,7.0,39,0.00,,,0.00,VWS V14.01,2013-07-15 18:56:00,
2013-07-15 14:01:00,80.7,55.5,29.98,East,82,1.0,7.0,42,0.00,,,0.00,VWS V14.01,2013-07-15 19:01:00,
2013-07-15 14:06:00,80.9,53.7,29.98,NNE,21,2.0,7.0,39,0.00,,,0.00,VWS V14.01,2013-07-15 19:06:00,
2013-07-15 14:11:00,81.4,54.1,29.98,East,100,0.0,7.0,39,0.00,,,0.00,VWS V14.01,2013-07-15 19:11:00,
2013-07-15 14:16:00,82.2,56.2,29.98,South,175,0.0,7.0,41,0.00,,,0.00,VWS V14.01,2013-07-15 19:16:00,
2013-07-15 14:21:00,82.0,55.3,29.98,ENE,69,6.0,6.0,40,0.00,,,0.00,VWS V14.01,2013-07-15 19:21:00,
2013-07-15 14:26:00,82.0,54.6,29.98,SSE,160,0.0,7.0,39,0.00,,,0.00,VWS V14.01,2013-07-15 19:26:00,
2013-07-15 14:31:00,82.4,55.7,29.98,SSE,160,1.0,7.0,40,0.00,,,0.00,VWS V14.01,2013-07-15 19:31:00,
2013-07-15 14:36:00,83.0,58.9,29.98,SSW,208,5.0,9.0,44,0.00,,,0.00,VWS V14.01,2013-07-15 19:36:00,
2013-07-15 14:41:00,83.4,54.4,29.98,South,176,0.0,9.0,37,0.00,,,0.00,VWS V14.01,2013-07-15 19:41:00,
2013-07-15 14:46:00,83.6,56.0,29.98,ESE,102,0.0,9.0,39,0.00,,,0.00,VWS V14.01,2013-07-15 19:46:00,
2013-07-15 14:52:00,83.8,54.0,29.97,South,184,0.0,6.0,36,0.00,,,0.00,VWS V14.01,2013-07-15 19:52:00,
2013-07-15 14:57:00,83.4,54.4,29.97,South,182,0.0,6.0,37,0.00,,,0.00,VWS V14.01,2013-07-15 19:57:00,
2013-07-15 15:02:00,83.0,54.8,29.97,South,174,0.0,6.0,38,0.00,,,0.00,VWS V14.01,2013-07-15 20:02:00,
2013-07-15 15:07:00,83.6,52.3,29.96,South,191,2.0,11.0,34,0.00,,,0.00,VWS V14.01,2013-07-15 20:07:00,
2013-07-15 15:12:00,83.2,55.7,29.96,ENE,71,1.0,12.0,39,0.00,,,0.00,VWS V14.01,2013-07-15 20:12:00,
2013-07-15 15:17:00,81.8,55.8,29.96,ENE,62,0.0,12.0,41,0.00,,,0.00,VWS V14.01,2013-07-15 20:17:00,
2013-07-15 15:22:00,81.2,56.0,29.96,ENE,61,2.0,5.0,42,0.00,,,0.00,VWS V14.01,2013-07-15 20:22:00,
2013-07-15 15:27:00,81.6,52.8,29.96,South,174,4.0,7.0,37,0.00,,,0.00,VWS V14.01,2013-07-15 20:27:00,
2013-07-15 15:32:00,82.8,53.2,29.96,South,174,1.0,7.0,36,0.00,,,0.00,VWS V14.01,2013-07-15 20:32:00,
2013-07-15 15:37:00,83.4,52.9,29.96,SSE,158,0.0,7.0,35,0.00,,,0.00,VWS V14.01,2013-07-15 20:37:00,
2013-07-15 15:43:00,83.2,55.0,29.96,NE,38,0.0,7.0,38,0.00,,,0.00,VWS V14.01,2013-07-15 20:43:00,
2013-07-15 15:48:00,82.2,56.2,29.96,NE,34,0.0,7.0,41,0.00,,,0.00,VWS V14.01,2013-07-15 20:48:00,
2013-07-15 15:53:00,82.4,52.8,29.96,ENE,71,2.0,5.0,36,0.00,,,0.00,VWS V14.01,2013-07-15 20:53:00,
2013-07-15 15:58:00,81.8,52.3,29.96,ENE,71,2.0,5.0,36,0.00,,,0.00,VWS V14.01,2013-07-15 20:58:00,
2013-07-15 16:03:00,81.8,55.1,29.96,ENE,71,0.0,5.0,40,0.00,,,0.00,VWS V14.01,2013-07-15 21:03:00,
2013-07-15 16:08:00,82.4,56.4,29.96,SE,131,0.0,5.0,41,0.00,,,0.00,VWS V14.01,2013-07-15 21:08:00,
2013-07-15 16:13:00,81.4,56.1,29.96,NE,34,0.0,6.0,42,0.00,,,0.00,VWS V14.01,2013-07-15 21:13:00,
2013-07-15 16:18:00,81.2,57.2,29.96,NE,56,2.0,2.0,44,0.00,,,0.00,VWS V14.01,2013-07-15 21:18:00,
2013-07-15 16:23:00,80.5,56.6,29.96,NE,56,0.0,5.0,44,0.00,,,0.00,VWS V14.01,2013-07-15 21:23:00,
2013-07-15 16:28:00,80.3,55.8,29.96,ENE,58,0.0,6.0,43,0.00,,,0.00,VWS V14.01,2013-07-15 21:28:00,
2013-07-15 16:33:00,80.3,57.0,29.95,NE,56,2.0,5.0,45,0.00,,,0.00,VWS V14.01,2013-07-15 21:33:00,
2013-07-15 16:38:00,80.5,58.4,29.95,NE,56,0.0,5.0,47,0.00,,,0.00,VWS V14.01,2013-07-15 21:38:00,
2013-07-15 16:43:00,80.9,58.2,29.95,NE,49,0.0,8.0,46,0.00,,,0.00,VWS V14.01,2013-07-15 21:43:00,
2013-07-15 16:48:00,81.1,59.6,29.95,NE,49,0.0,1.0,48,0.00,,,0.00,VWS V14.01,2013-07-15 21:48:00,
2013-07-15 16:53:00,80.9,56.3,29.95,NE,49,0.0,3.0,43,0.00,,,0.00,VWS V14.01,2013-07-15 21:53:00,
2013-07-15 16:58:00,80.7,58.6,29.95,NE,48,2.0,6.0,47,0.00,,,0.00,VWS V14.01,2013-07-15 21:58:00,
2013-07-15 17:03:00,80.9,57.6,29.94,NE,49,2.0,2.0,45,0.00,,,0.00,VWS V14.01,2013-07-15 22:03:00,
2013-07-15 17:08:00,81.1,55.9,29.94,NE,48,1.0,6.0,42,0.00,,,0.00,VWS V14.01,2013-07-15 22:08:00,
2013-07-15 17:13:00,81.1,57.8,29.94,NE,48,2.0,6.0,45,0.00,,,0.00,VWS V14.01,2013-07-15 22:13:00,
2013-07-15 17:18:00,80.9,57.6,29.94,NE,49,0.0,5.0,45,0.00,,,0.00,VWS V14.01,2013-07-15 22:18:00,
2013-07-15 17:23:00,80.9,58.2,29.94,ESE,120,0.0,5.0,46,0.00,,,0.00,VWS V14.01,2013-07-15 22:23:00,
2013-07-15 17:28:00,80.7,58.6,29.94,ENE,75,2.0,5.0,47,0.00,,,0.00,VWS V14.01,2013-07-15 22:28:00,
2013-07-15 17:33:00,80.5,59.0,29.94,ESE,109,5.0,5.0,48,0.00,,,0.00,VWS V14.01,2013-07-15 22:33:00,
2013-07-15 17:38:00,80.5,57.2,29.94,ESE,103,0.0,5.0,45,0.00,,,0.00,VWS V14.01,2013-07-15 22:38:00,
2013-07-15 17:43:00,80.7,56.8,29.94,SSE,154,0.0,5.0,44,0.00,,,0.00,VWS V14.01,2013-07-15 22:43:00,
2013-07-15 17:48:00,80.7,56.2,29.94,South,189,0.0,1.0,43,0.00,,,0.00,VWS V14.01,2013-07-15 22:48:00,
2013-07-15 17:54:00,80.5,57.8,29.94,East,79,3.0,5.0,46,0.00,,,0.00,VWS V14.01,2013-07-15 22:54:00,
2013-07-15 17:59:00,80.5,56.6,29.94,NE,48,2.0,7.0,44,0.00,,,0.00,VWS V14.01,2013-07-15 22:59:00,
2013-07-15 18:04:00,80.7,58.6,29.94,NE,52,1.0,1.0,47,0.00,,,0.00,VWS V14.01,2013-07-15 23:04:00,
2013-07-15 18:09:00,80.7,56.8,29.94,NE,52,2.0,3.0,44,0.00,,,0.00,VWS V14.01,2013-07-15 23:09:00,
2013-07-15 18:14:00,80.5,57.2,29.94,NE,49,0.0,6.0,45,0.00,,,0.00,VWS V14.01,2013-07-15 23:14:00,
2013-07-15 18:19:00,80.5,57.8,29.94,NE,49,3.0,3.0,46,0.00,,,0.00,VWS V14.01,2013-07-15 23:19:00,
2013-07-15 18:24:00,80.3,57.0,29.94,NE,49,2.0,6.0,45,0.00,,,0.00,VWS V14.01,2013-07-15 23:24:00,
2013-07-15 18:29:00,80.3,57.7,29.94,NE,55,5.0,8.0,46,0.00,,,0.00,VWS V14.01,2013-07-15 23:29:00,
2013-07-15 18:34:00,80.1,57.5,29.94,NE,55,2.0,5.0,46,0.00,,,0.00,VWS V14.01,2013-07-15 23:34:00,
2013-07-15 18:39:00,80.3,57.0,29.94,NE,55,0.0,5.0,45,0.00,,,0.00,VWS V14.01,2013-07-15 23:39:00,
2013-07-15 18:44:00,80.3,59.4,29.94,NE,55,0.0,5.0,49,0.00,,,0.00,VWS V14.01,2013-07-15 23:44:00,
2013-07-15 18:49:00,80.3,58.2,29.94,NE,55,0.0,4.0,47,0.00,,,0.00,VWS V14.01,2013-07-15 23:49:00,
2013-07-15 18:54:00,80.3,56.4,29.94,NE,55,0.0,6.0,44,0.00,,,0.00,VWS V14.01,2013-07-15 23:54:00,
2013-07-15 18:59:00,80.3,58.8,29.94,NE,55,1.0,6.0,48,0.00,,,0.00,VWS V14.01,2013-07-15 23:59:00,
2013-07-15 19:05:00,80.3,57.7,29.94,NE,55,2.0,5.0,46,0.00,,,0.00,VWS V14.01,2013-07-16 00:05:00,
2013-07-15 19:10:00,80.3,58.8,29.94,ESE,121,1.0,5.0,48,0.00,,,0.00,VWS V14.01,2013-07-16 00:10:00,
2013-07-15 19:15:00,80.3,57.7,29.94,ENE,69,1.0,5.0,46,0.00,,,0.00,VWS V14.01,2013-07-16 00:15:00,
2013-07-15 19:20:00,80.3,57.0,29.94,ENE,69,0.0,5.0,45,0.00,,,0.00,VWS V14.01,2013-07-16 00:20:00,
2013-07-15 19:25:00,80.3,58.8,29.94,ENE,69,2.0,5.0,48,0.00,,,0.00,VWS V14.01,2013-07-16 00:25:00,
2013-07-15 19:30:00,80.3,58.8,29.94,SSE,161,0.0,5.0,48,0.00,,,0.00,VWS V14.01,2013-07-16 00:30:00,
2013-07-15 19:35:00,80.5,60.2,29.94,SSE,161,0.0,2.0,50,0.00,,,0.00,VWS V14.01,2013-07-16 00:35:00,
2013-07-15 19:40:00,80.3,61.1,29.94,ESE,116,1.0,3.0,52,0.00,,,0.00,VWS V14.01,2013-07-16 00:40:00,
2013-07-15 19:45:00,80.1,60.4,29.94,ESE,106,1.0,5.0,51,0.00,,,0.00,VWS V14.01,2013-07-16 00:45:00,
2013-07-15 19:51:00,79.9,60.7,29.93,East,88,2.0,5.0,52,0.00,,,0.00,VWS V14.01,2013-07-16 00:51:00,
2013-07-15 19:56:00,79.8,60.6,29.93,ENE,59,2.0,5.0,52,0.00,,,0.00,VWS V14.01,2013-07-16 00:56:00,
2013-07-15 20:01:00,79.8,62.7,29.93,ENE,59,2.0,5.0,56,0.00,,,0.00,VWS V14.01,2013-07-16 01:01:00,
2013-07-15 20:06:00,79.6,62.0,29.93,ENE,59,1.0,2.0,55,0.00,,,0.00,VWS V14.01,2013-07-16 01:06:00,
2013-07-15 20:11:00,79.4,61.8,29.93,ENE,59,0.0,2.0,55,0.00,,,0.00,VWS V14.01,2013-07-16 01:11:00,
2013-07-15 20:16:00,79.2,62.2,29.93,ENE,59,0.0,4.0,56,0.00,,,0.00,VWS V14.01,2013-07-16 01:16:00,
2013-07-15 20:21:00,79.0,62.5,29.93,ENE,59,2.0,2.0,57,0.00,,,0.00,VWS V14.01,2013-07-16 01:21:00,
2013-07-15 20:26:00,78.6,62.6,29.93,NE,56,0.0,5.0,58,0.00,,,0.00,VWS V14.01,2013-07-16 01:26:00,
2013-07-15 20:31:00,78.3,62.3,29.93,NE,56,2.0,5.0,58,0.00,,,0.00,VWS V14.01,2013-07-16 01:31:00,
2013-07-15 20:36:00,78.1,62.6,29.93,ENE,58,4.0,5.0,59,0.00,,,0.00,VWS V14.01,2013-07-16 01:36:00,
2013-07-15 20:41:00,77.9,62.9,29.93,ENE,58,0.0,5.0,60,0.00,,,0.00,VWS V14.01,2013-07-16 01:41:00,
2013-07-15 20:46:00,77.7,63.2,29.93,ENE,58,0.0,5.0,61,0.00,,,0.00,VWS V14.01,2013-07-16 01:46:00,
2013-07-15 20:51:00,77.6,63.1,29.93,ENE,58,0.0,2.0,61,0.00,,,0.00,VWS V14.01,2013-07-16 01:51:00,
2013-07-15 20:57:00,77.2,63.2,29.93,SSW,203,0.0,4.0,62,0.00,,,0.00,VWS V14.01,2013-07-16 01:57:00,
2013-07-15 21:02:00,77.0,63.0,29.95,SSW,206,0.0,4.0,62,0.00,,,0.00,VWS V14.01,2013-07-16 02:02:00,
2013-07-15 21:07:00,76.8,63.3,29.95,SSW,206,0.0,5.0,63,0.00,,,0.00,VWS V14.01,2013-07-16 02:07:00,
2013-07-15 21:12:00,76.5,63.0,29.95,SSW,206,0.0,5.0,63,0.00,,,0.00,VWS V14.01,2013-07-16 02:12:00,
2013-07-15 21:17:00,76.0,62.5,29.94,SSW,206,0.0,5.0,63,0.00,,,0.00,VWS V14.01,2013-07-16 02:17:00,
2013-07-15 21:22:00,75.6,62.1,29.94,SSW,206,0.0,5.0,63,0.00,,,0.00,VWS V14.01,2013-07-16 02:22:00,
2013-07-15 21:27:00,75.4,61.9,29.94,SSW,206,0.0,5.0,63,0.00,,,0.00,VWS V14.01,2013-07-16 02:27:00,
2013-07-15 21:32:00,75.1,61.2,29.94,SSW,206,0.0,5.0,62,0.00,,,0.00,VWS V14.01,2013-07-16 02:32:00,
2013-07-15 21:38:00,74.9,61.0,29.94,SSW,205,0.0,3.0,62,0.00,,,0.00,VWS V14.01,2013-07-16 02:38:00,
2013-07-15 21:43:00,74.7,60.8,29.94,SSW,205,1.0,5.0,62,0.00,,,0.00,VWS V14.01,2013-07-16 02:43:00,
2013-07-15 21:48:00,74.6,60.7,29.95,SSW,203,0.0,0.0,62,0.00,,,0.00,VWS V14.01,2013-07-16 02:48:00,
2013-07-15 21:53:00,74.4,60.1,29.95,SSW,203,0.0,2.0,61,0.00,,,0.00,VWS V14.01,2013-07-16 02:53:00,
2013-07-15 21:58:00,74.2,59.9,29.95,SSW,203,0.0,2.0,61,0.00,,,0.00,VWS V14.01,2013-07-16 02:58:00,
2013-07-15 22:03:00,73.9,59.2,29.96,SSW,203,0.0,2.0,60,0.00,,,0.00,VWS V14.01,2013-07-16 03:03:00,
2013-07-15 22:08:00,73.7,59.4,29.96,SSW,203,0.0,4.0,61,0.00,,,0.00,VWS V14.01,2013-07-16 03:08:00,
2013-07-15 22:13:00,73.7,59.4,29.96,SSW,203,0.0,4.0,61,0.00,,,0.00,VWS V14.01,2013-07-16 03:13:00,
2013-07-15 22:18:00,73.5,59.2,29.96,SSW,203,0.0,2.0,61,0.00,,,0.00,VWS V14.01,2013-07-16 03:18:00,
2013-07-15 22:23:00,73.3,59.0,29.96,SSW,203,1.0,3.0,61,0.00,,,0.00,VWS V14.01,2013-07-16 03:23:00,
2013-07-15 22:28:00,73.2,59.4,29.96,SSW,203,1.0,3.0,62,0.00,,,0.00,VWS V14.01,2013-07-16 03:28:00,
2013-07-15 22:33:00,72.8,59.0,29.97,SSW,202,0.0,2.0,62,0.00,,,0.00,VWS V14.01,2013-07-16 03:33:00,
2013-07-15 22:38:00,72.7,59.4,29.97,SSW,195,2.0,5.0,63,0.00,,,0.00,VWS V14.01,2013-07-16 03:38:00,
2013-07-15 22:44:00,72.7,58.9,29.97,SSW,195,5.0,5.0,62,0.00,,,0.00,VWS V14.01,2013-07-16 03:44:00,
2013-07-15 22:49:00,72.5,59.2,29.98,SSW,195,3.0,5.0,63,0.00,,,0.00,VWS V14.01,2013-07-16 03:49:00,
2013-07-15 22:54:00,72.3,59.0,29.98,SSW,195,5.0,6.0,63,0.00,,,0.00,VWS V14.01,2013-07-16 03:54:00,
2013-07-15 22:59:00,72.3,59.5,29.98,SSW,195,2.0,7.0,64,0.00,,,0.00,VWS V14.01,2013-07-16 03:59:00,
2013-07-15 23:01:00,72.3,58.6,29.98,SSW,195,3.0,7.0,62,0.00,,,0.00,VWS V14.01,2013-07-16 04:01:00,
2013-07-15 23:06:00,72.1,59.7,29.98,SSW,195,2.0,5.0,65,0.00,,,0.00,VWS V14.01,2013-07-16 04:06:00,
2013-07-15 23:11:00,72.1,59.7,29.98,SSW,195,3.0,5.0,65,0.00,,,0.00,VWS V14.01,2013-07-16 04:11:00,
2013-07-15 23:16:00,71.8,59.8,29.98,SSW,195,2.0,5.0,66,0.00,,,0.00,VWS V14.01,2013-07-16 04:16:00,
2013-07-15 23:21:00,71.6,60.1,29.98,SSW,195,4.0,5.0,67,0.00,,,0.00,VWS V14.01,2013-07-16 04:21:00,
2013-07-15 23:26:00,71.5,61.2,29.98,South,181,5.0,7.0,70,0.00,,,0.00,VWS V14.01,2013-07-16 04:26:00,
2013-07-15 23:31:00,71.5,61.6,29.98,South,181,2.0,7.0,71,0.00,,,0.00,VWS V14.01,2013-07-16 04:31:00,
2013-07-15 23:36:00,71.3,60.6,29.98,South,181,5.0,7.0,69,0.00,,,0.00,VWS V14.01,2013-07-16 04:36:00,
2013-07-15 23:41:00,71.1,61.2,29.98,South,181,3.0,7.0,71,0.00,,,0.00,VWS V14.01,2013-07-16 04:41:00,
2013-07-15 23:46:00,70.9,61.0,29.98,South,181,1.0,7.0,71,0.00,,,0.00,VWS V14.01,2013-07-16 04:46:00,
2013-07-15 23:51:00,70.8,62.1,29.98,South,181,2.0,5.0,74,0.00,,,0.00,VWS V14.01,2013-07-16 04:51:00,
2013-07-15 23:56:00,70.6,61.9,29.98,South,181,2.0,5.0,74,0.00,,,0.00,VWS V14.01,2013-07-16 04:56:00,